createdAt,value
2022-10-29T00:00:58.345Z,5.78
2022-10-29T00:03:25.764Z,5.90
2022-10-29T00:06:01.108Z,6.35
2022-10-29T00:08:28.962Z,6.20
2022-10-29T00:10:56.145Z,6.15
2022-10-29T00:13:22.710Z,5.93
2022-10-29T00:15:49.237Z,5.88
2022-10-29T00:18:15.724Z,5.75
2022-10-29T00:20:42.255Z,5.60
2022-10-29T00:23:08.891Z,5.20
2022-10-29T00:25:35.381Z,6.00
2022-10-29T00:28:01.901Z,5.20
2022-10-29T00:30:28.409Z,5.32
2022-10-29T00:32:55.271Z,5.15
2022-10-29T00:35:22.083Z,5.40
2022-10-29T00:37:48.643Z,5.03
2022-10-29T00:40:15.256Z,5.68
2022-10-29T00:42:41.751Z,5.60
2022-10-29T00:45:17.629Z,6.07
2022-10-29T00:47:44.368Z,5.22
2022-10-29T00:50:12.975Z,5.28
2022-10-29T00:52:42.922Z,6.00
2022-10-29T00:55:11.778Z,6.68
2022-10-29T00:57:40.131Z,5.60
2022-10-29T01:00:07.305Z,6.00
2022-10-29T01:02:35.776Z,6.25
2022-10-29T01:05:03.936Z,5.85
2022-10-29T01:07:30.862Z,5.75
2022-10-29T01:09:57.481Z,6.00
2022-10-29T01:12:43.179Z,5.88
2022-10-29T01:15:21.126Z,6.00
2022-10-29T01:18:06.836Z,7.05
2022-10-29T01:20:53.884Z,6.00
2022-10-29T01:23:42.705Z,5.82
2022-10-29T01:26:12.185Z,6.88
2022-10-29T01:28:42.156Z,7.13
2022-10-29T01:31:15.331Z,6.82
2022-10-29T01:34:04.202Z,6.35
2022-10-29T01:36:46.058Z,6.07
2022-10-29T01:39:42.132Z,5.93
2022-10-29T01:42:22.020Z,5.45
2022-10-29T01:44:56.206Z,6.18
2022-10-29T01:47:25.045Z,6.82
2022-10-29T01:49:54.410Z,6.97
2022-10-29T01:52:22.155Z,5.93
2022-10-29T01:54:48.952Z,5.45
2022-10-29T01:57:28.738Z,6.35
2022-10-29T02:00:00.479Z,6.47
2022-10-29T02:03:00.227Z,6.28
2022-10-29T02:05:57.272Z,6.15
2022-10-29T02:08:30.709Z,6.88
2022-10-29T02:11:11.624Z,6.53
2022-10-29T02:13:43.079Z,6.50
2022-10-29T02:16:10.201Z,5.63
2022-10-29T02:18:45.731Z,6.35
2022-10-29T02:21:16.592Z,6.07
2022-10-29T02:23:44.014Z,6.75
2022-10-29T02:26:10.845Z,5.93
2022-10-29T02:28:37.342Z,5.93
2022-10-29T02:31:04.230Z,6.00
2022-10-29T02:33:30.711Z,5.18
2022-10-29T02:35:57.204Z,5.22
2022-10-29T02:38:24.349Z,5.40
2022-10-29T02:40:51.098Z,5.28
2022-10-29T02:45:44.384Z,5.43
2022-10-29T02:48:10.891Z,6.25
2022-10-29T02:50:37.381Z,6.47
2022-10-29T02:53:03.901Z,6.43
2022-10-29T02:55:30.421Z,5.60
2022-10-29T02:57:57.252Z,6.75
2022-10-29T03:00:23.983Z,5.50
2022-10-29T03:02:52.768Z,5.95
2022-10-29T03:05:19.362Z,6.47
2022-10-29T03:07:45.932Z,6.90
2022-10-29T03:10:12.465Z,6.50
2022-10-29T03:12:39.034Z,6.10
2022-10-29T03:15:06.248Z,6.38
2022-10-29T03:17:32.777Z,6.18
2022-10-29T03:19:59.319Z,5.93
2022-10-29T03:22:25.834Z,6.15
2022-10-29T03:24:52.402Z,5.63
2022-10-29T03:27:18.953Z,6.20
2022-10-29T03:29:45.421Z,5.80
2022-10-29T03:32:11.986Z,5.63
2022-10-29T03:34:38.454Z,5.80
2022-10-29T03:37:04.992Z,6.00
2022-10-29T03:39:31.516Z,6.38
2022-10-29T03:41:58.030Z,6.25
2022-10-29T03:44:24.519Z,6.53
2022-10-29T03:46:51.014Z,6.30
2022-10-29T03:49:17.558Z,5.13
2022-10-29T03:51:44.149Z,6.55
2022-10-29T03:54:10.769Z,6.10
2022-10-29T03:56:37.317Z,6.10
2022-10-29T03:59:03.902Z,5.95
2022-10-29T04:01:30.483Z,5.70
2022-10-29T04:03:57.090Z,6.20
2022-10-29T04:06:23.727Z,6.07
2022-10-29T04:08:50.205Z,5.70
2022-10-29T04:11:16.689Z,6.07
2022-10-29T04:13:43.370Z,6.00
2022-10-29T04:16:09.928Z,6.17
2022-10-29T04:18:36.362Z,6.83
2022-10-29T04:22:36.849Z,6.97
2022-10-29T04:29:22.998Z,5.93
2022-10-29T04:31:49.664Z,5.87
2022-10-29T04:34:16.198Z,7.00
2022-10-29T04:36:42.679Z,5.78
2022-10-29T04:39:09.209Z,6.77
2022-10-29T04:41:35.624Z,7.07
2022-10-29T04:44:02.524Z,6.10
2022-10-29T04:46:29.010Z,5.93
2022-10-29T04:48:55.544Z,5.67
2022-10-29T04:51:24.587Z,6.53
2022-10-29T04:53:51.296Z,6.90
2022-10-29T04:56:18.388Z,6.97
2022-10-29T04:58:44.906Z,6.83
2022-10-29T05:01:11.692Z,7.03
2022-10-29T05:03:38.349Z,6.37
2022-10-29T05:06:06.191Z,6.83
2022-10-29T05:08:33.038Z,6.93
2022-10-29T05:11:04.629Z,7.17
2022-10-29T05:13:31.485Z,6.60
2022-10-29T05:15:58.049Z,7.43
2022-10-29T05:18:25.044Z,6.20
2022-10-29T05:20:55.261Z,6.67
2022-10-29T05:23:21.969Z,6.00
2022-10-29T05:25:49.305Z,6.60
2022-10-29T05:28:20.742Z,6.60
2022-10-29T05:30:49.819Z,6.90
2022-10-29T05:33:18.960Z,7.20
2022-10-29T05:35:46.074Z,7.38
2022-10-29T05:38:13.406Z,6.57
2022-10-29T05:40:40.271Z,6.80
2022-10-29T05:43:06.794Z,5.75
2022-10-29T05:45:33.386Z,6.83
2022-10-29T05:48:02.058Z,6.27
2022-10-29T05:50:29.504Z,6.43
2022-10-29T05:52:59.891Z,6.50
2022-10-29T05:55:26.919Z,5.93
2022-10-29T05:57:57.993Z,7.20
2022-10-29T06:00:25.695Z,5.95
2022-10-29T06:02:52.570Z,6.90
2022-10-29T06:05:22.869Z,6.57
2022-10-29T06:07:59.712Z,6.43
2022-10-29T06:10:28.963Z,7.17
2022-10-29T06:12:55.633Z,6.83
2022-10-29T06:15:23.055Z,7.23
2022-10-29T06:17:50.475Z,6.90
2022-10-29T06:20:19.790Z,6.93
2022-10-29T06:22:46.431Z,6.90
2022-10-29T06:25:13.324Z,6.87
2022-10-29T06:27:39.860Z,7.30
2022-10-29T06:30:07.401Z,7.33
2022-10-29T06:32:33.854Z,6.65
2022-10-29T06:35:00.327Z,6.40
2022-10-29T06:37:27.494Z,6.37
2022-10-29T06:39:54.018Z,7.07
2022-10-29T06:42:20.506Z,7.57
2022-10-29T06:44:46.948Z,7.07
2022-10-29T06:47:13.404Z,7.75
2022-10-29T06:49:39.889Z,6.33
2022-10-29T06:52:06.392Z,6.45
2022-10-29T06:54:32.982Z,6.38
2022-10-29T06:56:59.493Z,6.35
2022-10-29T06:59:26.023Z,6.38
2022-10-29T07:01:52.631Z,5.57
2022-10-29T07:04:20.819Z,6.85
2022-10-29T07:06:47.335Z,6.50
2022-10-29T07:09:13.794Z,6.20
2022-10-29T07:11:40.265Z,7.60
2022-10-29T07:14:08.546Z,6.95
2022-10-29T07:16:35.466Z,6.35
2022-10-29T07:19:02.814Z,7.60
2022-10-29T07:21:29.289Z,7.47
2022-10-29T07:23:55.762Z,6.97
2022-10-29T07:26:22.402Z,6.90
2022-10-29T07:28:48.929Z,6.53
2022-10-29T07:31:15.403Z,7.93
2022-10-29T07:33:41.920Z,6.35
2022-10-29T07:36:11.272Z,6.88
2022-10-29T07:38:38.028Z,6.55
2022-10-29T07:41:04.605Z,6.82
2022-10-29T07:43:31.103Z,6.68
2022-10-29T07:45:57.637Z,6.63
2022-10-29T07:48:24.178Z,6.78
2022-10-29T07:50:50.681Z,6.63
2022-10-29T07:53:17.514Z,6.88
2022-10-29T07:55:44.120Z,6.88
2022-10-29T07:58:12.233Z,6.65
2022-10-29T08:00:40.325Z,6.97
2022-10-29T08:03:07.168Z,6.88
2022-10-29T08:05:34.181Z,6.25
2022-10-29T08:08:00.963Z,6.88
2022-10-29T08:10:28.084Z,5.88
2022-10-29T08:12:57.483Z,6.32
2022-10-29T08:15:25.023Z,6.72
2022-10-29T08:17:51.612Z,6.65
2022-10-29T08:20:18.559Z,6.30
2022-10-29T08:22:45.421Z,6.88
2022-10-29T08:25:12.889Z,5.68
2022-10-29T08:27:39.505Z,6.60
2022-10-29T08:30:07.558Z,6.18
2022-10-29T08:32:34.018Z,6.18
2022-10-29T08:35:00.517Z,7.10
2022-10-29T08:37:27.313Z,6.57
2022-10-29T08:39:53.884Z,5.78
2022-10-29T08:42:42.573Z,5.88
2022-10-29T08:45:21.286Z,4.95
2022-10-29T08:47:54.611Z,5.30
2022-10-29T08:50:29.768Z,5.82
2022-10-29T08:53:21.789Z,5.82
2022-10-29T08:55:44.236Z,5.80
2022-10-29T08:58:22.583Z,5.55
2022-10-29T09:00:54.170Z,5.57
2022-10-29T09:03:20.781Z,5.43
2022-10-29T09:06:02.206Z,6.25
2022-10-29T09:08:43.927Z,5.32
2022-10-29T09:11:30.519Z,5.70
2022-10-29T09:14:18.177Z,5.07
2022-10-29T09:17:03.323Z,5.65
2022-10-29T09:19:41.857Z,5.45
2022-10-29T09:22:39.904Z,5.50
2022-10-29T09:25:22.588Z,4.55
2022-10-29T09:27:52.066Z,5.05
2022-10-29T09:30:21.697Z,5.38
2022-10-29T09:32:59.931Z,5.43
2022-10-29T09:35:37.267Z,5.45
2022-10-29T09:38:08.963Z,5.65
2022-10-29T09:40:40.771Z,5.18
2022-10-29T09:43:19.484Z,5.18
2022-10-29T09:46:01.289Z,5.40
2022-10-29T09:48:35.211Z,4.57
2022-10-29T09:51:18.632Z,5.57
2022-10-29T09:53:45.412Z,4.75
2022-10-29T09:56:11.864Z,5.35
2022-10-29T09:58:42.266Z,4.32
2022-10-29T10:01:08.981Z,4.22
2022-10-29T10:03:45.570Z,5.05
2022-10-29T10:06:14.422Z,4.63
2022-10-29T10:09:01.862Z,4.97
2022-10-29T10:11:42.539Z,5.10
2022-10-29T10:14:27.449Z,4.55
2022-10-29T10:16:58.153Z,4.60
2022-10-29T10:19:28.301Z,4.72
2022-10-29T10:22:02.189Z,5.10
2022-10-29T10:24:37.413Z,5.18
2022-10-29T10:27:19.952Z,4.78
2022-10-29T10:30:05.087Z,5.00
2022-10-29T10:32:32.046Z,4.47
2022-10-29T10:34:58.574Z,4.95
2022-10-29T10:37:32.126Z,5.18
2022-10-29T10:40:16.465Z,4.75
2022-10-29T10:42:54.318Z,5.47
2022-10-29T10:46:05.098Z,4.50
2022-10-29T10:48:34.118Z,4.38
2022-10-29T10:51:25.325Z,5.43
2022-10-29T10:53:52.001Z,4.35
2022-10-29T10:56:20.343Z,5.15
2022-10-29T10:58:51.796Z,4.47
2022-10-29T11:01:31.043Z,6.03
2022-10-29T11:04:11.507Z,4.80
2022-10-29T11:06:40.278Z,5.03
2022-10-29T11:09:21.647Z,4.63
2022-10-29T11:12:26.602Z,4.75
2022-10-29T11:14:56.175Z,5.30
2022-10-29T11:17:29.147Z,4.80
2022-10-29T11:20:16.355Z,5.07
2022-10-29T11:23:20.007Z,5.03
2022-10-29T11:25:54.767Z,5.93
2022-10-29T11:28:35.588Z,4.43
2022-10-29T11:31:18.476Z,4.75
2022-10-29T11:33:57.270Z,5.32
2022-10-29T11:36:26.006Z,5.25
2022-10-29T11:38:59.089Z,4.72
2022-10-29T11:41:38.643Z,4.45
2022-10-29T11:44:11.000Z,4.07
2022-10-29T11:46:37.615Z,4.47
2022-10-29T11:49:16.113Z,4.50
2022-10-29T11:52:03.861Z,4.95
2022-10-29T11:54:56.104Z,4.32
2022-10-29T11:57:39.734Z,4.57
2022-10-29T12:00:14.518Z,4.03
2022-10-29T12:03:02.934Z,5.03
2022-10-29T12:06:20.729Z,4.68
2022-10-29T12:09:05.821Z,4.50
2022-10-29T12:11:43.325Z,5.70
2022-10-29T12:14:21.414Z,4.93
2022-10-29T12:16:59.836Z,3.55
2022-10-29T12:19:54.282Z,4.03
2022-10-29T12:22:44.716Z,4.15
2022-10-29T12:25:27.229Z,4.60
2022-10-29T12:28:02.838Z,4.65
2022-10-29T12:30:34.598Z,4.75
2022-10-29T12:33:10.089Z,4.88
2022-10-29T12:35:47.287Z,4.63
2022-10-29T12:38:36.721Z,5.50
2022-10-29T12:41:37.109Z,5.05
2022-10-29T12:44:20.497Z,5.05
2022-10-29T12:46:55.192Z,4.85
2022-10-29T12:49:39.360Z,4.95
2022-10-29T12:52:13.111Z,4.38
2022-10-29T12:54:45.639Z,5.55
2022-10-29T12:57:15.746Z,5.20
2022-10-29T12:59:44.158Z,5.47
2022-10-29T13:02:36.287Z,6.18
2022-10-29T13:05:06.205Z,5.82
2022-10-29T13:07:34.329Z,5.32
2022-10-29T13:10:33.018Z,6.20
2022-10-29T13:13:00.883Z,5.45
2022-10-29T13:15:42.087Z,5.18
2022-10-29T13:18:12.907Z,6.05
2022-10-29T13:20:42.230Z,6.15
2022-10-29T13:23:24.994Z,6.18
2022-10-29T13:25:53.022Z,6.18
2022-10-29T13:28:20.252Z,6.32
2022-10-29T13:30:50.318Z,5.78
2022-10-29T13:33:26.176Z,5.50
2022-10-29T13:35:53.446Z,5.88
2022-10-29T13:39:05.700Z,5.47
2022-10-29T13:41:49.864Z,6.43
2022-10-29T13:44:21.344Z,6.72
2022-10-29T13:47:13.068Z,6.18
2022-10-29T13:49:43.667Z,5.70
2022-10-29T13:52:10.144Z,5.88
2022-10-29T13:54:47.363Z,5.50
2022-10-29T13:57:25.953Z,6.32
2022-10-29T14:00:21.680Z,6.57
2022-10-29T14:03:03.331Z,6.13
2022-10-29T14:05:45.365Z,6.53
2022-10-29T14:08:17.307Z,5.85
2022-10-29T14:10:43.705Z,5.80
2022-10-29T14:13:22.054Z,6.20
2022-10-29T14:16:06.468Z,5.80
2022-10-29T14:18:44.783Z,7.35
2022-10-29T14:21:23.064Z,6.47
2022-10-29T14:24:09.393Z,6.40
2022-10-29T14:26:41.613Z,6.30
2022-10-29T14:29:25.358Z,7.70
2022-10-29T14:32:15.664Z,8.13
2022-10-29T14:34:42.734Z,7.32
2022-10-29T14:37:28.941Z,7.13
2022-10-29T14:40:02.016Z,6.38
2022-10-29T14:42:43.901Z,6.85
2022-10-29T14:45:23.900Z,5.68
2022-10-29T14:47:55.586Z,6.95
2022-10-29T14:50:24.354Z,6.72
2022-10-29T14:52:54.114Z,6.78
2022-10-29T14:55:25.561Z,7.43
2022-10-29T14:57:54.726Z,6.53
2022-10-29T15:00:30.035Z,7.68
2022-10-29T15:02:57.383Z,7.20
2022-10-29T15:05:31.182Z,6.60
2022-10-29T15:08:14.884Z,7.05
2022-10-29T15:10:59.654Z,7.38
2022-10-29T15:13:32.220Z,7.03
2022-10-29T15:16:04.088Z,6.85
2022-10-29T15:18:31.756Z,7.22
2022-10-29T15:20:58.431Z,7.80
2022-10-29T15:23:28.793Z,7.13
2022-10-29T15:26:01.051Z,6.68
2022-10-29T15:28:29.563Z,6.38
2022-10-29T15:30:56.437Z,5.93
2022-10-29T15:33:28.033Z,6.22
2022-10-29T15:35:58.394Z,7.00
2022-10-29T15:38:30.865Z,6.72
2022-10-29T15:41:20.352Z,7.90
2022-10-29T15:43:54.851Z,7.40
2022-10-29T15:46:28.995Z,6.93
2022-10-29T15:48:55.604Z,6.72
2022-10-29T15:51:26.046Z,6.72
2022-10-29T15:53:53.348Z,7.78
2022-10-29T15:56:23.565Z,7.13
2022-10-29T15:58:50.357Z,7.18
2022-10-29T16:01:17.289Z,8.73
2022-10-29T16:03:44.433Z,10.60
2022-10-29T16:06:11.555Z,7.20
2022-10-29T16:08:41.209Z,6.72
2022-10-29T16:11:12.001Z,7.80
2022-10-29T16:13:38.974Z,7.75
2022-10-29T16:16:09.272Z,8.75
2022-10-29T16:18:35.779Z,7.90
2022-10-29T16:21:06.314Z,8.15
2022-10-29T16:23:34.280Z,7.35
2022-10-29T16:26:00.780Z,7.78
2022-10-29T16:28:27.247Z,9.98
2022-10-29T16:30:55.536Z,8.75
2022-10-29T16:33:21.974Z,10.07
2022-10-29T16:35:48.514Z,8.45
2022-10-29T16:38:16.636Z,7.53
2022-10-29T16:40:43.337Z,7.05
2022-10-29T16:43:09.896Z,7.20
2022-10-29T16:45:36.528Z,7.97
2022-10-29T16:48:03.236Z,7.13
2022-10-29T16:50:32.502Z,7.65
2022-10-29T16:53:07.389Z,8.02
2022-10-29T16:55:36.440Z,7.60
2022-10-29T16:58:03.103Z,7.18
2022-10-29T17:00:32.995Z,7.18
2022-10-29T17:03:04.797Z,7.53
2022-10-29T17:05:41.412Z,7.75
2022-10-29T17:08:07.899Z,8.48
2022-10-29T17:10:34.586Z,8.73
2022-10-29T17:13:01.061Z,7.22
2022-10-29T17:15:27.880Z,7.40
2022-10-29T17:17:54.324Z,7.82
2022-10-29T17:20:21.190Z,8.55
2022-10-29T17:22:47.645Z,7.53
2022-10-29T17:25:14.159Z,8.32
2022-10-29T17:27:41.852Z,8.63
2022-10-29T17:30:09.668Z,8.23
2022-10-29T17:32:36.275Z,8.63
2022-10-29T17:35:02.956Z,7.97
2022-10-29T17:37:29.575Z,8.38
2022-10-29T17:39:56.041Z,8.43
2022-10-29T17:42:22.698Z,8.63
2022-10-29T17:44:49.160Z,8.48
2022-10-29T17:47:16.243Z,8.25
2022-10-29T17:49:42.888Z,8.23
2022-10-29T17:52:09.351Z,8.15
2022-10-29T17:54:35.828Z,7.63
2022-10-29T17:57:02.296Z,7.28
2022-10-29T17:59:28.733Z,7.97
2022-10-29T18:01:55.278Z,8.77
2022-10-29T18:04:21.747Z,7.47
2022-10-29T18:06:48.263Z,8.63
2022-10-29T18:09:17.244Z,9.20
2022-10-29T18:11:49.167Z,7.57
2022-10-29T18:14:15.692Z,8.38
2022-10-29T18:16:42.154Z,8.13
2022-10-29T18:19:08.801Z,8.73
2022-10-29T18:21:35.246Z,9.63
2022-10-29T18:24:01.749Z,8.55
2022-10-29T18:26:33.992Z,11.82
2022-10-29T18:29:03.867Z,22.42
2022-10-29T18:31:31.267Z,11.25
2022-10-29T18:33:59.631Z,10.50
2022-10-29T18:36:26.446Z,13.90
2022-10-29T18:38:54.861Z,13.93
2022-10-29T18:41:22.080Z,11.13
2022-10-29T18:43:49.027Z,9.73
2022-10-29T18:46:16.203Z,9.35
2022-10-29T18:48:45.801Z,9.20
2022-10-29T18:51:24.406Z,9.07
2022-10-29T18:53:51.880Z,8.70
2022-10-29T18:56:19.570Z,9.10
2022-10-29T18:58:46.364Z,9.40
2022-10-29T19:01:22.714Z,9.48
2022-10-29T19:03:57.650Z,9.57
2022-10-29T19:06:25.981Z,8.48
2022-10-29T19:08:52.820Z,8.60
2022-10-29T19:11:22.033Z,9.57
2022-10-29T19:13:52.368Z,8.10
2022-10-29T19:16:19.221Z,8.50
2022-10-29T19:18:45.754Z,9.48
2022-10-29T19:21:15.356Z,8.55
2022-10-29T19:23:42.102Z,9.00
2022-10-29T19:26:10.967Z,8.88
2022-10-29T19:28:38.473Z,9.18
2022-10-29T19:31:10.273Z,9.07
2022-10-29T19:33:37.136Z,9.48
2022-10-29T19:36:04.776Z,9.38
2022-10-29T19:38:31.231Z,8.63
2022-10-29T19:40:58.359Z,8.57
2022-10-29T19:43:25.564Z,9.15
2022-10-29T19:45:52.745Z,8.90
2022-10-29T19:48:19.304Z,8.00
2022-10-29T19:50:46.432Z,9.38
2022-10-29T19:53:12.907Z,8.90
2022-10-29T19:55:40.399Z,10.13
2022-10-29T19:58:07.469Z,8.75
2022-10-29T20:00:34.232Z,9.00
2022-10-29T20:03:00.946Z,9.80
2022-10-29T20:05:27.488Z,10.00
2022-10-29T20:07:54.181Z,10.80
2022-10-29T20:10:20.873Z,9.95
2022-10-29T20:12:47.332Z,11.32
2022-10-29T20:15:13.819Z,9.77
2022-10-29T20:17:40.699Z,9.90
2022-10-29T20:20:09.650Z,9.85
2022-10-29T20:22:39.536Z,10.07
2022-10-29T20:25:06.575Z,8.65
2022-10-29T20:27:33.051Z,9.00
2022-10-29T20:29:59.678Z,9.43
2022-10-29T20:32:26.229Z,9.30
2022-10-29T20:34:52.723Z,9.18
2022-10-29T20:37:19.259Z,8.48
2022-10-29T20:39:45.692Z,8.77
2022-10-29T20:42:12.236Z,8.40
2022-10-29T20:44:38.683Z,9.18
2022-10-29T20:47:05.224Z,7.72
2022-10-29T20:49:31.676Z,8.23
2022-10-29T20:51:58.109Z,8.60
2022-10-29T20:54:24.578Z,8.88
2022-10-29T20:56:51.059Z,7.72
2022-10-29T20:59:17.491Z,9.27
2022-10-29T21:01:44.080Z,7.82
2022-10-29T21:04:10.660Z,9.65
2022-10-29T21:06:37.117Z,8.75
2022-10-29T21:09:03.625Z,8.85
2022-10-29T21:11:30.068Z,7.63
2022-10-29T21:13:56.507Z,8.13
2022-10-29T21:16:27.588Z,8.07
2022-10-29T21:18:56.888Z,8.00
2022-10-29T21:21:23.591Z,9.40
2022-10-29T21:23:50.115Z,8.68
2022-10-29T21:26:19.056Z,8.15
2022-10-29T21:28:45.595Z,7.90
2022-10-29T21:31:12.072Z,7.28
2022-10-29T21:33:38.563Z,9.40
2022-10-29T21:36:05.415Z,8.43
2022-10-29T21:38:33.322Z,8.45
2022-10-29T21:41:03.255Z,7.95
2022-10-29T21:43:30.070Z,7.25
2022-10-29T21:45:56.576Z,7.70
2022-10-29T21:48:25.688Z,9.30
2022-10-29T21:51:01.886Z,8.15
2022-10-29T21:53:28.803Z,8.23
2022-10-29T21:55:57.164Z,8.07
2022-10-29T21:58:23.865Z,8.95
2022-10-29T22:00:50.538Z,7.85
2022-10-29T22:03:17.765Z,8.32
2022-10-29T22:05:44.289Z,8.82
2022-10-29T22:08:10.824Z,8.93
2022-10-29T22:10:37.349Z,8.93
2022-10-29T22:13:03.813Z,8.65
2022-10-29T22:15:30.342Z,8.50
2022-10-29T22:17:56.780Z,8.50
2022-10-29T22:20:23.287Z,9.60
2022-10-29T22:22:49.796Z,9.00
2022-10-29T22:25:16.353Z,10.30
2022-10-29T22:27:42.869Z,9.20
2022-10-29T22:30:09.740Z,9.10
2022-10-29T22:32:36.213Z,8.68
2022-10-29T22:35:02.729Z,8.63
2022-10-29T22:37:29.273Z,9.20
2022-10-29T22:39:55.782Z,9.07
2022-10-29T22:42:22.325Z,8.38
2022-10-29T22:44:48.896Z,8.90
2022-10-29T22:47:15.375Z,8.13
2022-10-29T22:49:41.821Z,8.23
2022-10-29T22:52:08.276Z,8.60
2022-10-29T22:54:34.848Z,7.80
2022-10-29T22:57:01.330Z,9.13
2022-10-29T22:59:27.822Z,7.68
2022-10-29T23:01:54.398Z,7.75
2022-10-29T23:04:21.048Z,7.90
2022-10-29T23:06:47.821Z,8.47
2022-10-29T23:09:14.293Z,9.18
2022-10-29T23:11:40.761Z,8.23
2022-10-29T23:14:07.250Z,8.32
2022-10-29T23:16:35.521Z,7.83
2022-10-29T23:19:04.628Z,8.45
2022-10-29T23:21:31.754Z,7.97
2022-10-29T23:23:58.437Z,8.53
2022-10-29T23:26:25.702Z,8.20
2022-10-29T23:28:52.368Z,8.52
2022-10-29T23:31:23.955Z,8.45
2022-10-29T23:33:53.672Z,8.43
2022-10-29T23:36:21.958Z,8.23
2022-10-29T23:38:48.864Z,9.05
2022-10-29T23:41:15.381Z,7.95
2022-10-29T23:43:41.871Z,7.07
2022-10-29T23:46:08.473Z,8.13
2022-10-29T23:48:34.936Z,7.88
2022-10-29T23:51:02.535Z,8.25
2022-10-29T23:53:29.190Z,8.25
2022-10-29T23:55:55.612Z,8.60
2022-10-29T23:58:22.079Z,8.35
